sensor_id;sensor_type;location;lat;lon;timestamp;pressure;altitude;pressure_sealevel;temperature;humidity
73341;BME280;61578;52.002;5.468;2023-05-21T00:00:10;101839.56;;;17.56;57.32
73341;BME280;61578;52.002;5.468;2023-05-21T00:00:42;101856.59;;;17.68;58.13
73341;BME280;61578;52.002;5.468;2023-05-21T00:01:13;101864.03;;;17.64;58.15
73341;BME280;61578;52.002;5.468;2023-05-21T00:01:45;101862.31;;;17.63;56.97
73341;BME280;61578;52.002;5.468;2023-05-21T00:02:17;101852.66;;;17.60;56.84
73341;BME280;61578;52.002;5.468;2023-05-21T00:02:49;101855.31;;;17.49;56.69
73341;BME280;61578;52.002;5.468;2023-05-21T00:03:23;101863.63;;;17.57;57.25
73341;BME280;61578;52.002;5.468;2023-05-21T00:03:56;101858.34;;;17.56;57.41
73341;BME280;61578;52.002;5.468;2023-05-21T00:04:29;101858.34;;;17.56;57.13
73341;BME280;61578;52.002;5.468;2023-05-21T00:05:01;101865.56;;;17.55;56.94
73341;BME280;61578;52.002;5.468;2023-05-21T00:05:31;101861.16;;;17.54;56.88
73341;BME280;61578;52.002;5.468;2023-05-21T00:06:02;101847.25;;;17.49;57.05
73341;BME280;61578;52.002;5.468;2023-05-21T00:06:34;101862.66;;;17.58;57.28
73341;BME280;61578;52.002;5.468;2023-05-21T00:07:08;101861.69;;;17.59;57.39
73341;BME280;61578;52.002;5.468;2023-05-21T00:07:38;101841.63;;;17.52;56.68
73341;BME280;61578;52.002;5.468;2023-05-21T00:08:10;101852.50;;;17.62;57.50
73341;BME280;61578;52.002;5.468;2023-05-21T00:08:41;101858.84;;;17.61;56.83
73341;BME280;61578;52.002;5.468;2023-05-21T00:09:12;101862.53;;;17.60;56.16
73341;BME280;61578;52.002;5.468;2023-05-21T00:09:43;101855.34;;;17.60;56.19
73341;BME280;61578;52.002;5.468;2023-05-21T00:10:13;101859.09;;;17.58;56.68
73341;BME280;61578;52.002;5.468;2023-05-21T00:10:44;101858.13;;;17.59;56.14
73341;BME280;61578;52.002;5.468;2023-05-21T00:11:15;101859.00;;;17.59;55.94
73341;BME280;61578;52.002;5.468;2023-05-21T00:11:46;101855.34;;;17.60;57.30
73341;BME280;61578;52.002;5.468;2023-05-21T00:12:16;101847.38;;;17.59;56.87
73341;BME280;61578;52.002;5.468;2023-05-21T00:12:47;101856.53;;;17.56;56.75
73341;BME280;61578;52.002;5.468;2023-05-21T00:13:18;101859.97;;;17.58;57.35
73341;BME280;61578;52.002;5.468;2023-05-21T00:13:48;101855.56;;;17.57;56.97
73341;BME280;61578;52.002;5.468;2023-05-21T00:14:19;101851.78;;;17.60;58.13
73341;BME280;61578;52.002;5.468;2023-05-21T00:14:50;101841.72;;;17.51;56.51
73341;BME280;61578;52.002;5.468;2023-05-21T00:15:23;101855.44;;;17.59;56.75
73341;BME280;61578;52.002;5.468;2023-05-21T00:15:54;101852.13;;;17.55;57.64
73341;BME280;61578;52.002;5.468;2023-05-21T00:16:27;101859.97;;;17.58;57.48
73341;BME280;61578;52.002;5.468;2023-05-21T00:16:57;101843.34;;;17.53;57.38
73341;BME280;61578;52.002;5.468;2023-05-21T00:17:28;101849.22;;;17.58;57.92
73341;BME280;61578;52.002;5.468;2023-05-21T00:17:59;101856.31;;;17.59;58.30
73341;BME280;61578;52.002;5.468;2023-05-21T00:18:30;101854.47;;;17.60;57.92
73341;BME280;61578;52.002;5.468;2023-05-21T00:19:01;101845.56;;;17.59;57.94
73341;BME280;61578;52.002;5.468;2023-05-21T00:19:32;101853.72;;;17.58;57.31
73341;BME280;61578;52.002;5.468;2023-05-21T00:20:03;101851.03;;;17.58;57.21
73341;BME280;61578;52.002;5.468;2023-05-21T00:20:39;101843.97;;;17.57;57.66
73341;BME280;61578;52.002;5.468;2023-05-21T00:21:11;101852.00;;;17.57;57.92
73341;BME280;61578;52.002;5.468;2023-05-21T00:21:41;101843.34;;;17.53;57.11
73341;BME280;61578;52.002;5.468;2023-05-21T00:22:13;101849.69;;;17.52;56.57
73341;BME280;61578;52.002;5.468;2023-05-21T00:22:45;101856.88;;;17.52;57.11
73341;BME280;61578;52.002;5.468;2023-05-21T00:23:15;101850.66;;;17.51;56.84
73341;BME280;61578;52.002;5.468;2023-05-21T00:23:48;101842.09;;;17.46;56.76
73341;BME280;61578;52.002;5.468;2023-05-21T00:24:19;101847.97;;;17.51;56.78
73341;BME280;61578;52.002;5.468;2023-05-21T00:24:50;101842.47;;;17.53;56.63
73341;BME280;61578;52.002;5.468;2023-05-21T00:25:23;101846.13;;;17.52;57.30
73341;BME280;61578;52.002;5.468;2023-05-21T00:25:54;101839.41;;;17.46;57.44
73341;BME280;61578;52.002;5.468;2023-05-21T00:26:25;101845.28;;;17.51;57.45
73341;BME280;61578;52.002;5.468;2023-05-21T00:26:56;101846.03;;;17.53;57.21
73341;BME280;61578;52.002;5.468;2023-05-21T00:27:27;101844.41;;;17.51;57.01
73341;BME280;61578;52.002;5.468;2023-05-21T00:27:58;101847.84;;;17.53;56.74
73341;BME280;61578;52.002;5.468;2023-05-21T00:28:28;101845.41;;;17.50;57.32
73341;BME280;61578;52.002;5.468;2023-05-21T00:28:59;101840.50;;;17.44;57.46
73341;BME280;61578;52.002;5.468;2023-05-21T00:29:30;101844.16;;;17.43;57.13
73341;BME280;61578;52.002;5.468;2023-05-21T00:30:01;101840.50;;;17.44;57.67
73341;BME280;61578;52.002;5.468;2023-05-21T00:30:32;101839.66;;;17.43;57.50
73341;BME280;61578;52.002;5.468;2023-05-21T00:31:03;101833.31;;;17.44;57.40
73341;BME280;61578;52.002;5.468;2023-05-21T00:31:34;101843.31;;;17.42;58.97
73341;BME280;61578;52.002;5.468;2023-05-21T00:32:05;101831.97;;;17.39;58.25
73341;BME280;61578;52.002;5.468;2023-05-21T00:32:36;101837.81;;;17.44;59.34
73341;BME280;61578;52.002;5.468;2023-05-21T00:33:07;101834.53;;;17.40;59.09
73341;BME280;61578;52.002;5.468;2023-05-21T00:33:39;101831.84;;;17.40;58.80
73341;BME280;61578;52.002;5.468;2023-05-21T00:34:12;101827.03;;;17.33;57.83
73341;BME280;61578;52.002;5.468;2023-05-21T00:34:43;101838.53;;;17.35;57.90
73341;BME280;61578;52.002;5.468;2023-05-21T00:35:17;101827.16;;;17.31;58.00
73341;BME280;61578;52.002;5.468;2023-05-21T00:35:47;101832.78;;;17.28;58.42
73341;BME280;61578;52.002;5.468;2023-05-21T00:36:18;101823.38;;;17.34;58.19
73341;BME280;61578;52.002;5.468;2023-05-21T00:36:52;101840.72;;;17.29;57.86
73341;BME280;61578;52.002;5.468;2023-05-21T00:37:24;101833.38;;;17.32;58.29
73341;BME280;61578;52.002;5.468;2023-05-21T00:37:55;101828.28;;;17.28;58.42
73341;BME280;61578;52.002;5.468;2023-05-21T00:38:26;101830.09;;;17.28;57.82
73341;BME280;61578;52.002;5.468;2023-05-21T00:38:57;101823.88;;;17.27;58.59
73341;BME280;61578;52.002;5.468;2023-05-21T00:39:27;101818.25;;;17.19;58.90
73341;BME280;61578;52.002;5.468;2023-05-21T00:40:01;101833.75;;;17.27;58.58
73341;BME280;61578;52.002;5.468;2023-05-21T00:40:37;101835.59;;;17.26;58.88
73341;BME280;61578;52.002;5.468;2023-05-21T00:41:10;101827.41;;;17.28;59.23
73341;BME280;61578;52.002;5.468;2023-05-21T00:41:41;101825.81;;;17.25;59.54
73341;BME280;61578;52.002;5.468;2023-05-21T00:42:12;101830.44;;;17.23;58.59
73341;BME280;61578;52.002;5.468;2023-05-21T00:42:47;101827.00;;;17.21;58.36
73341;BME280;61578;52.002;5.468;2023-05-21T00:43:19;101830.44;;;17.23;59.39
73341;BME280;61578;52.002;5.468;2023-05-21T00:43:49;101820.94;;;17.19;58.69
73341;BME280;61578;52.002;5.468;2023-05-21T00:44:25;101828.97;;;17.19;58.33
73341;BME280;61578;52.002;5.468;2023-05-21T00:44:56;101826.28;;;17.19;58.86
73341;BME280;61578;52.002;5.468;2023-05-21T00:45:27;101827.88;;;17.22;58.94
73341;BME280;61578;52.002;5.468;2023-05-21T00:45:58;101824.47;;;17.20;58.65
73341;BME280;61578;52.002;5.468;2023-05-21T00:46:29;101819.09;;;17.20;58.18
73341;BME280;61578;52.002;5.468;2023-05-21T00:47:01;101821.03;;;17.18;58.47
73341;BME280;61578;52.002;5.468;2023-05-21T00:47:33;101828.22;;;17.17;58.51
73341;BME280;61578;52.002;5.468;2023-05-21T00:48:05;101819.22;;;17.18;59.60
73341;BME280;61578;52.002;5.468;2023-05-21T00:48:46;101819.31;;;17.17;58.51
73341;BME280;61578;52.002;5.468;2023-05-21T00:49:20;101814.69;;;17.19;59.18
73341;BME280;61578;52.002;5.468;2023-05-21T00:49:54;101822.88;;;17.17;59.19
73341;BME280;61578;52.002;5.468;2023-05-21T00:50:25;101812.56;;;17.11;59.50
73341;BME280;61578;52.002;5.468;2023-05-21T00:50:55;101827.25;;;17.18;59.33
73341;BME280;61578;52.002;5.468;2023-05-21T00:51:26;101819.31;;;17.17;59.63
73341;BME280;61578;52.002;5.468;2023-05-21T00:51:59;101813.81;;;17.07;58.97
73341;BME280;61578;52.002;5.468;2023-05-21T00:52:30;101820.63;;;17.11;58.69
73341;BME280;61578;52.002;5.468;2023-05-21T00:53:01;101823.31;;;17.11;59.02
73341;BME280;61578;52.002;5.468;2023-05-21T00:53:35;101821.47;;;17.12;59.23
73341;BME280;61578;52.002;5.468;2023-05-21T00:54:06;101828.81;;;17.10;58.81
73341;BME280;61578;52.002;5.468;2023-05-21T00:54:38;101818.19;;;17.08;60.24
73341;BME280;61578;52.002;5.468;2023-05-21T00:55:09;101828.94;;;17.08;60.05
73341;BME280;61578;52.002;5.468;2023-05-21T00:55:40;101824.53;;;17.07;60.87
73341;BME280;61578;52.002;5.468;2023-05-21T00:56:11;101813.91;;;17.06;60.85
73341;BME280;61578;52.002;5.468;2023-05-21T00:56:42;101817.91;;;17.00;59.53
73341;BME280;61578;52.002;5.468;2023-05-21T00:57:13;101823.03;;;17.03;59.58
73341;BME280;61578;52.002;5.468;2023-05-21T00:57:44;101818.66;;;17.02;59.21
73341;BME280;61578;52.002;5.468;2023-05-21T00:58:15;101829.63;;;16.99;59.37
73341;BME280;61578;52.002;5.468;2023-05-21T00:58:47;101828.78;;;16.99;59.29
73341;BME280;61578;52.002;5.468;2023-05-21T00:59:18;101819.13;;;16.96;59.74
73341;BME280;61578;52.002;5.468;2023-05-21T00:59:51;101825.44;;;16.95;59.87
73341;BME280;61578;52.002;5.468;2023-05-21T01:00:25;101807.38;;;16.86;59.86
73341;BME280;61578;52.002;5.468;2023-05-21T01:00:57;101826.41;;;16.94;60.27
73341;BME280;61578;52.002;5.468;2023-05-21T01:01:34;101821.28;;;16.91;59.76
73341;BME280;61578;52.002;5.468;2023-05-21T01:02:06;101823.09;;;16.90;59.57
73341;BME280;61578;52.002;5.468;2023-05-21T01:02:38;101827.50;;;16.91;59.84
73341;BME280;61578;52.002;5.468;2023-05-21T01:03:11;101820.38;;;16.79;59.95
73341;BME280;61578;52.002;5.468;2023-05-21T01:03:43;101825.91;;;16.65;60.82
73341;BME280;61578;52.002;5.468;2023-05-21T01:04:13;101829.84;;;16.60;61.25
73341;BME280;61578;52.002;5.468;2023-05-21T01:04:46;101827.84;;;16.50;61.21
73341;BME280;61578;52.002;5.468;2023-05-21T01:05:17;101811.47;;;16.42;60.52
73341;BME280;61578;52.002;5.468;2023-05-21T01:05:50;101825.63;;;16.44;61.77
73341;BME280;61578;52.002;5.468;2023-05-21T01:06:25;101817.69;;;16.43;62.13
73341;BME280;61578;52.002;5.468;2023-05-21T01:06:56;101816.09;;;16.40;61.49
73341;BME280;61578;52.002;5.468;2023-05-21T01:07:28;101805.81;;;16.34;62.09
73341;BME280;61578;52.002;5.468;2023-05-21T01:07:59;101815.22;;;16.40;61.52
73341;BME280;61578;52.002;5.468;2023-05-21T01:08:32;101831.31;;;16.40;61.12
73341;BME280;61578;52.002;5.468;2023-05-21T01:09:04;101814.38;;;16.39;61.05
73341;BME280;61578;52.002;5.468;2023-05-21T01:09:36;101804.84;;;16.35;62.29
73341;BME280;61578;52.002;5.468;2023-05-21T01:10:09;101811.84;;;16.38;61.61
73341;BME280;61578;52.002;5.468;2023-05-21T01:10:41;101811.84;;;16.38;62.98
73341;BME280;61578;52.002;5.468;2023-05-21T01:11:12;101810.97;;;16.37;61.93
73341;BME280;61578;52.002;5.468;2023-05-21T01:11:47;101819.00;;;16.37;61.26
73341;BME280;61578;52.002;5.468;2023-05-21T01:12:22;101826.19;;;16.37;61.79
73341;BME280;61578;52.002;5.468;2023-05-21T01:12:56;101817.72;;;16.30;61.62
73341;BME280;61578;52.002;5.468;2023-05-21T01:13:30;101816.00;;;16.29;61.27
73341;BME280;61578;52.002;5.468;2023-05-21T01:14:04;101823.31;;;16.27;61.45
73341;BME280;61578;52.002;5.468;2023-05-21T01:14:39;101819.03;;;16.25;61.51
73341;BME280;61578;52.002;5.468;2023-05-21T01:15:11;101824.28;;;16.26;62.22
73341;BME280;61578;52.002;5.468;2023-05-21T01:15:43;101821.81;;;16.23;62.43
73341;BME280;61578;52.002;5.468;2023-05-21T01:16:17;101823.53;;;16.24;61.59
73341;BME280;61578;52.002;5.468;2023-05-21T01:16:49;101817.31;;;16.24;62.33
73341;BME280;61578;52.002;5.468;2023-05-21T01:17:25;101820.75;;;16.26;62.80
73341;BME280;61578;52.002;5.468;2023-05-21T01:17:57;101827.94;;;16.25;62.79
73341;BME280;61578;52.002;5.468;2023-05-21T01:18:28;101820.84;;;16.24;62.09
73341;BME280;61578;52.002;5.468;2023-05-21T01:19:05;101804.69;;;16.13;62.48
73341;BME280;61578;52.002;5.468;2023-05-21T01:19:40;101822.03;;;16.20;61.93
73341;BME280;61578;52.002;5.468;2023-05-21T01:20:15;101816.06;;;16.16;62.89
73341;BME280;61578;52.002;5.468;2023-05-21T01:20:48;101815.81;;;16.19;62.42
73341;BME280;61578;52.002;5.468;2023-05-21T01:21:24;101808.69;;;16.07;62.22
73341;BME280;61578;52.002;5.468;2023-05-21T01:22:05;101811.88;;;16.12;62.47
73341;BME280;61578;52.002;5.468;2023-05-21T01:23:23;101806.31;;;16.39;61.91
73341;BME280;61578;52.002;5.468;2023-05-21T01:23:55;101810.50;;;16.43;61.30
73341;BME280;61578;52.002;5.468;2023-05-21T01:24:25;101817.22;;;16.49;61.33
73341;BME280;61578;52.002;5.468;2023-05-21T01:24:56;101805.69;;;16.48;61.12
73341;BME280;61578;52.002;5.468;2023-05-21T01:25:27;101809.09;;;16.50;60.87
73341;BME280;61578;52.002;5.468;2023-05-21T01:25:58;101803.50;;;16.53;61.93
73341;BME280;61578;52.002;5.468;2023-05-21T01:26:28;101811.44;;;16.55;61.54
73341;BME280;61578;52.002;5.468;2023-05-21T01:27:01;101806.94;;;16.55;61.63
73341;BME280;61578;52.002;5.468;2023-05-21T01:27:33;101814.00;;;16.56;61.37
73341;BME280;61578;52.002;5.468;2023-05-21T01:28:03;101795.06;;;16.47;61.48
73341;BME280;61578;52.002;5.468;2023-05-21T01:28:34;101806.19;;;16.53;61.39
73341;BME280;61578;52.002;5.468;2023-05-21T01:29:06;101811.44;;;16.55;61.59
73341;BME280;61578;52.002;5.468;2023-05-21T01:29:42;101812.19;;;16.57;61.79
73341;BME280;61578;52.002;5.468;2023-05-21T01:30:14;101811.34;;;16.56;62.28
73341;BME280;61578;52.002;5.468;2023-05-21T01:30:47;101798.34;;;16.50;62.01
73341;BME280;61578;52.002;5.468;2023-05-21T01:31:40;101798.03;;;16.55;61.53
73341;BME280;61578;52.002;5.468;2023-05-21T01:33:12;101806.56;;;16.60;62.05
73341;BME280;61578;52.002;5.468;2023-05-21T01:33:49;101805.72;;;16.60;61.11
73341;BME280;61578;52.002;5.468;2023-05-21T01:34:34;101798.78;;;16.57;61.33
73341;BME280;61578;52.002;5.468;2023-05-21T01:35:13;101798.78;;;16.57;61.12
73341;BME280;61578;52.002;5.468;2023-05-21T01:35:59;101805.84;;;16.58;61.03
73341;BME280;61578;52.002;5.468;2023-05-21T01:36:40;101799.63;;;16.58;61.81
73341;BME280;61578;52.002;5.468;2023-05-21T01:37:36;101802.94;;;16.61;61.71
73341;BME280;61578;52.002;5.468;2023-05-21T01:38:21;101806.56;;;16.60;60.97
73341;BME280;61578;52.002;5.468;2023-05-21T01:39:02;101800.72;;;16.55;61.19
73341;BME280;61578;52.002;5.468;2023-05-21T01:39:43;101800.50;;;16.58;61.30
73341;BME280;61578;52.002;5.468;2023-05-21T01:41:17;101809.41;;;16.59;61.33
73341;BME280;61578;52.002;5.468;2023-05-21T01:41:52;101802.44;;;16.56;61.31
73341;BME280;61578;52.002;5.468;2023-05-21T01:42:26;101809.50;;;16.57;61.48
73341;BME280;61578;52.002;5.468;2023-05-21T01:43:01;101799.75;;;16.56;61.84
73341;BME280;61578;52.002;5.468;2023-05-21T01:43:38;101798.88;;;16.55;61.96
73341;BME280;61578;52.002;5.468;2023-05-21T01:44:13;101806.06;;;16.55;61.63
73341;BME280;61578;52.002;5.468;2023-05-21T01:44:51;101787.53;;;16.52;62.44
73341;BME280;61578;52.002;5.468;2023-05-21T01:45:27;101797.06;;;16.56;62.25
73341;BME280;61578;52.002;5.468;2023-05-21T01:46:04;101782.63;;;16.46;61.82
73341;BME280;61578;52.002;5.468;2023-05-21T01:46:37;101799.00;;;16.54;62.13
73341;BME280;61578;52.002;5.468;2023-05-21T01:47:09;101799.84;;;16.54;61.51
73341;BME280;61578;52.002;5.468;2023-05-21T01:47:46;101803.63;;;16.52;61.78
73341;BME280;61578;52.002;5.468;2023-05-21T01:48:18;101805.44;;;16.51;61.46
73341;BME280;61578;52.002;5.468;2023-05-21T01:48:51;101799.31;;;16.49;62.40
73341;BME280;61578;52.002;5.468;2023-05-21T01:49:25;101802.66;;;16.53;61.71
73341;BME280;61578;52.002;5.468;2023-05-21T01:49:58;101792.03;;;16.51;61.45
73341;BME280;61578;52.002;5.468;2023-05-21T01:50:31;101798.16;;;16.53;61.95
73341;BME280;61578;52.002;5.468;2023-05-21T01:51:05;101806.06;;;16.55;62.20
73341;BME280;61578;52.002;5.468;2023-05-21T01:51:37;101806.94;;;16.55;62.12
73341;BME280;61578;52.002;5.468;2023-05-21T01:52:08;101801.69;;;16.54;62.03
73341;BME280;61578;52.002;5.468;2023-05-21T01:52:48;101804.25;;;16.55;62.46
73341;BME280;61578;52.002;5.468;2023-05-21T01:53:23;101799.00;;;16.54;62.83
73341;BME280;61578;52.002;5.468;2023-05-21T01:53:54;101801.69;;;16.54;62.14
73341;BME280;61578;52.002;5.468;2023-05-21T01:54:27;101791.53;;;16.46;62.39
73341;BME280;61578;52.002;5.468;2023-05-21T01:54:58;101809.84;;;16.52;61.49
73341;BME280;61578;52.002;5.468;2023-05-21T01:55:29;101803.63;;;16.52;62.04
73341;BME280;61578;52.002;5.468;2023-05-21T01:56:00;101805.31;;;16.53;61.68
73341;BME280;61578;52.002;5.468;2023-05-21T01:56:32;101807.16;;;16.52;62.45
73341;BME280;61578;52.002;5.468;2023-05-21T01:57:03;101805.31;;;16.53;62.86
73341;BME280;61578;52.002;5.468;2023-05-21T01:57:33;101798.34;;;16.50;62.49
73341;BME280;61578;52.002;5.468;2023-05-21T01:58:04;101804.47;;;16.52;62.33
73341;BME280;61578;52.002;5.468;2023-05-21T01:58:35;101807.91;;;16.54;62.15
73341;BME280;61578;52.002;5.468;2023-05-21T01:59:06;101806.28;;;16.52;61.99
73341;BME280;61578;52.002;5.468;2023-05-21T01:59:38;101808.00;;;16.53;61.41
73341;BME280;61578;52.002;5.468;2023-05-21T02:00:09;101804.34;;;16.54;62.07
73341;BME280;61578;52.002;5.468;2023-05-21T02:00:41;101810.69;;;16.53;61.97
73341;BME280;61578;52.002;5.468;2023-05-21T02:01:11;101803.63;;;16.52;61.85
73341;BME280;61578;52.002;5.468;2023-05-21T02:01:42;101803.50;;;16.53;62.37
73341;BME280;61578;52.002;5.468;2023-05-21T02:02:13;101799.00;;;16.54;62.27
73341;BME280;61578;52.002;5.468;2023-05-21T02:02:44;101796.31;;;16.54;61.81
73341;BME280;61578;52.002;5.468;2023-05-21T02:03:14;101784.44;;;16.45;62.37
73341;BME280;61578;52.002;5.468;2023-05-21T02:03:46;101798.25;;;16.52;62.28
73341;BME280;61578;52.002;5.468;2023-05-21T02:04:17;101792.13;;;16.50;61.32
73341;BME280;61578;52.002;5.468;2023-05-21T02:04:47;101806.28;;;16.52;61.47
73341;BME280;61578;52.002;5.468;2023-05-21T02:05:19;101797.75;;;16.47;61.67
73341;BME280;61578;52.002;5.468;2023-05-21T02:05:50;101798.34;;;16.50;61.95
73341;BME280;61578;52.002;5.468;2023-05-21T02:06:24;101797.50;;;16.50;61.76
73341;BME280;61578;52.002;5.468;2023-05-21T02:06:54;101798.16;;;16.53;62.02
73341;BME280;61578;52.002;5.468;2023-05-21T02:07:25;101800.81;;;16.53;62.59
73341;BME280;61578;52.002;5.468;2023-05-21T02:07:58;101805.31;;;16.53;62.51
73341;BME280;61578;52.002;5.468;2023-05-21T02:08:29;101796.22;;;16.55;62.67
73341;BME280;61578;52.002;5.468;2023-05-21T02:09:01;101791.81;;;16.54;62.21
73341;BME280;61578;52.002;5.468;2023-05-21T02:09:32;101796.22;;;16.55;62.72
73341;BME280;61578;52.002;5.468;2023-05-21T02:10:03;101803.41;;;16.55;62.22
73341;BME280;61578;52.002;5.468;2023-05-21T02:10:34;101796.31;;;16.54;61.79
73341;BME280;61578;52.002;5.468;2023-05-21T02:11:05;101803.50;;;16.53;61.78
73341;BME280;61578;52.002;5.468;2023-05-21T02:11:36;101784.44;;;16.45;61.02
73341;BME280;61578;52.002;5.468;2023-05-21T02:12:07;101802.53;;;16.54;61.51
73341;BME280;61578;52.002;5.468;2023-05-21T02:12:38;101797.28;;;16.53;61.61
73341;BME280;61578;52.002;5.468;2023-05-21T02:13:09;101794.50;;;16.54;61.34
73341;BME280;61578;52.002;5.468;2023-05-21T02:13:39;101794.50;;;16.54;61.64
73341;BME280;61578;52.002;5.468;2023-05-21T02:14:11;101798.03;;;16.55;62.00
73341;BME280;61578;52.002;5.468;2023-05-21T02:14:46;101784.25;;;16.48;62.03
73341;BME280;61578;52.002;5.468;2023-05-21T02:15:19;101790.00;;;16.55;62.25
73341;BME280;61578;52.002;5.468;2023-05-21T02:15:50;101796.09;;;16.57;61.99
73341;BME280;61578;52.002;5.468;2023-05-21T02:16:24;101798.69;;;16.59;62.37
73341;BME280;61578;52.002;5.468;2023-05-21T02:16:54;101798.78;;;16.57;61.67
73341;BME280;61578;52.002;5.468;2023-05-21T02:17:26;101796.97;;;16.58;62.19
73341;BME280;61578;52.002;5.468;2023-05-21T02:18:00;101788.06;;;16.57;62.14
73341;BME280;61578;52.002;5.468;2023-05-21T02:18:31;101795.25;;;16.56;61.96
73341;BME280;61578;52.002;5.468;2023-05-21T02:19:03;101790.97;;;16.54;61.81
73341;BME280;61578;52.002;5.468;2023-05-21T02:19:36;101795.56;;;16.52;61.97
73341;BME280;61578;52.002;5.468;2023-05-21T02:20:07;101795.47;;;16.53;61.59
73341;BME280;61578;52.002;5.468;2023-05-21T02:20:41;101794.50;;;16.54;62.68
73341;BME280;61578;52.002;5.468;2023-05-21T02:21:12;101793.75;;;16.52;62.54
73341;BME280;61578;52.002;5.468;2023-05-21T02:21:46;101793.09;;;16.49;62.51
73341;BME280;61578;52.002;5.468;2023-05-21T02:22:17;101784.66;;;16.42;62.63
73341;BME280;61578;52.002;5.468;2023-05-21T02:22:48;101796.44;;;16.52;62.33
73341;BME280;61578;52.002;5.468;2023-05-21T02:23:19;101798.16;;;16.53;62.22
73341;BME280;61578;52.002;5.468;2023-05-21T02:23:49;101793.00;;;16.50;62.26
73341;BME280;61578;52.002;5.468;2023-05-21T02:24:20;101791.16;;;16.51;62.30
73341;BME280;61578;52.002;5.468;2023-05-21T02:24:51;101803.50;;;16.53;61.95
73341;BME280;61578;52.002;5.468;2023-05-21T02:25:25;101806.41;;;16.50;62.26
73341;BME280;61578;52.002;5.468;2023-05-21T02:25:55;101798.34;;;16.50;62.18
73341;BME280;61578;52.002;5.468;2023-05-21T02:26:26;101802.66;;;16.53;62.58
73341;BME280;61578;52.002;5.468;2023-05-21T02:26:57;101797.63;;;16.48;61.83
73341;BME280;61578;52.002;5.468;2023-05-21T02:27:28;101792.13;;;16.50;62.17
73341;BME280;61578;52.002;5.468;2023-05-21T02:28:01;101793.09;;;16.49;62.28
73341;BME280;61578;52.002;5.468;2023-05-21T02:28:32;101790.22;;;16.52;62.17
73341;BME280;61578;52.002;5.468;2023-05-21T02:29:04;101794.81;;;16.50;61.93
73341;BME280;61578;52.002;5.468;2023-05-21T02:29:35;101792.13;;;16.50;61.99
73341;BME280;61578;52.002;5.468;2023-05-21T02:30:08;101792.88;;;16.52;62.15
73341;BME280;61578;52.002;5.468;2023-05-21T02:30:40;101802.53;;;16.54;61.89
73341;BME280;61578;52.002;5.468;2023-05-21T02:31:11;101783.59;;;16.45;62.37
73341;BME280;61578;52.002;5.468;2023-05-21T02:31:42;101793.75;;;16.52;62.88
73341;BME280;61578;52.002;5.468;2023-05-21T02:32:12;101790.97;;;16.54;63.36
73341;BME280;61578;52.002;5.468;2023-05-21T02:32:47;101791.06;;;16.52;62.36
73341;BME280;61578;52.002;5.468;2023-05-21T02:33:18;101796.22;;;16.55;61.91
73341;BME280;61578;52.002;5.468;2023-05-21T02:33:49;101790.00;;;16.55;62.27
73341;BME280;61578;52.002;5.468;2023-05-21T02:34:20;101793.53;;;16.55;62.40
73341;BME280;61578;52.002;5.468;2023-05-21T02:34:50;101797.06;;;16.56;62.24
73341;BME280;61578;52.002;5.468;2023-05-21T02:35:25;101799.00;;;16.54;62.65
73341;BME280;61578;52.002;5.468;2023-05-21T02:35:56;101790.00;;;16.55;61.92
73341;BME280;61578;52.002;5.468;2023-05-21T02:36:26;101798.88;;;16.55;61.64
73341;BME280;61578;52.002;5.468;2023-05-21T02:36:58;101800.72;;;16.55;61.79
73341;BME280;61578;52.002;5.468;2023-05-21T02:37:30;101792.66;;;16.55;62.40
73341;BME280;61578;52.002;5.468;2023-05-21T02:38:03;101805.97;;;16.56;62.28
73341;BME280;61578;52.002;5.468;2023-05-21T02:38:34;101797.19;;;16.54;62.04
73341;BME280;61578;52.002;5.468;2023-05-21T02:39:07;101799.84;;;16.54;62.34
73341;BME280;61578;52.002;5.468;2023-05-21T02:39:38;101798.16;;;16.53;61.75
73341;BME280;61578;52.002;5.468;2023-05-21T02:40:10;101804.25;;;16.55;61.38
73341;BME280;61578;52.002;5.468;2023-05-21T02:40:41;101798.16;;;16.53;61.73
73341;BME280;61578;52.002;5.468;2023-05-21T02:41:12;101796.44;;;16.52;61.90
73341;BME280;61578;52.002;5.468;2023-05-21T02:41:44;101797.28;;;16.53;62.74
73341;BME280;61578;52.002;5.468;2023-05-21T02:42:16;101799.00;;;16.54;62.43
73341;BME280;61578;52.002;5.468;2023-05-21T02:42:46;101793.75;;;16.52;62.34
73341;BME280;61578;52.002;5.468;2023-05-21T02:43:17;101797.28;;;16.53;62.25
73341;BME280;61578;52.002;5.468;2023-05-21T02:43:48;101796.44;;;16.52;62.51
73341;BME280;61578;52.002;5.468;2023-05-21T02:44:19;101797.41;;;16.51;63.25
73341;BME280;61578;52.002;5.468;2023-05-21T02:44:51;101790.56;;;16.47;62.12
73341;BME280;61578;52.002;5.468;2023-05-21T02:45:24;101800.44;;;16.47;62.09
73341;BME280;61578;52.002;5.468;2023-05-21T02:45:55;101790.41;;;16.49;62.40
73341;BME280;61578;52.002;5.468;2023-05-21T02:46:26;101792.38;;;16.47;62.02
73341;BME280;61578;52.002;5.468;2023-05-21T02:46:59;101793.09;;;16.49;62.83
73341;BME280;61578;52.002;5.468;2023-05-21T02:47:32;101795.19;;;16.45;62.23
73341;BME280;61578;52.002;5.468;2023-05-21T02:48:03;101792.50;;;16.45;62.96
73341;BME280;61578;52.002;5.468;2023-05-21T02:48:34;101790.41;;;16.49;63.33
73341;BME280;61578;52.002;5.468;2023-05-21T02:49:05;101794.09;;;16.48;62.96
73341;BME280;61578;52.002;5.468;2023-05-21T02:49:35;101787.88;;;16.47;62.85
73341;BME280;61578;52.002;5.468;2023-05-21T02:50:08;101792.28;;;16.48;62.77
73341;BME280;61578;52.002;5.468;2023-05-21T02:50:39;101779.31;;;16.42;62.53
73341;BME280;61578;52.002;5.468;2023-05-21T02:51:09;101787.03;;;16.47;64.05
73341;BME280;61578;52.002;5.468;2023-05-21T02:51:40;101787.88;;;16.47;63.76
73341;BME280;61578;52.002;5.468;2023-05-21T02:52:11;101775.16;;;16.38;62.66